Terminal Aerodrome Forecast
Issued by NWS

Home | Current Version | Previous Version | Text Only | Print | Product List | Glossary On
Versions: 1 2 3 4 5 6 7 8 9 10 11 12
000
FTUS44 KEPZ 271100
TAFLRU
TAF
KLRU 271120Z 2712/2812 VRB05KT P6SM BKN060
     FM271700 27005KT P6SM SCT070
     FM280600 VRB05KT P6SM BKN250=

USA.gov is the U.S. government's official web portal to all federal, state and local government web resources and services.